Time;durP1;ratioP1;P1;durP2;ratioP2;P2;SDS_P1;SDS_P2;PMS_P1;PMS_P2;Temp;Humidity;BMP_temperature;BMP_pressure;BME280_temperature;BME280_humidity;BME280_pressure;Samples;Min_cycle;Max_cycle;Signal;HPM_P1;HPM_P2
2021/07/23 00:00:41;;;;;;;18.52;16.80;;;25.40;99.90;;;;;;5110464;28;20559;-70
2021/07/23 00:03:06;;;;;;;18.23;16.42;;;25.40;99.90;;;;;;5112455;28;20493;-71
2021/07/23 00:05:32;;;;;;;18.30;16.50;;;25.40;99.90;;;;;;5111075;28;20027;-70
2021/07/23 00:07:58;;;;;;;24.58;16.85;;;25.30;99.90;;;;;;5112586;28;20019;-70
2021/07/23 00:10:24;;;;;;;21.73;15.63;;;25.20;99.90;;;;;;5112547;28;20032;-70
2021/07/23 00:12:50;;;;;;;19.08;16.85;;;25.20;99.90;;;;;;5111182;28;20059;-71
2021/07/23 00:15:15;;;;;;;22.50;17.77;;;25.10;99.90;;;;;;5111037;28;20392;-70
2021/07/23 00:17:41;;;;;;;19.33;17.10;;;25.10;99.90;;;;;;5110788;28;20389;-70
2021/07/23 00:20:07;;;;;;;18.05;16.45;;;25.10;99.90;;;;;;5110847;28;20155;-71
2021/07/23 00:22:33;;;;;;;19.10;16.83;;;25.10;99.90;;;;;;5112245;28;20232;-72
2021/07/23 00:24:59;;;;;;;15.23;13.93;;;25.10;99.90;;;;;;5112165;28;20019;-71
2021/07/23 00:27:25;;;;;;;18.17;16.45;;;25.10;99.90;;;;;;5111769;28;20034;-71
2021/07/23 00:29:51;;;;;;;22.05;17.85;;;25.00;99.90;;;;;;5112094;28;20080;-71
2021/07/23 00:32:17;;;;;;;18.17;16.13;;;25.00;99.90;;;;;;5111907;28;20102;-71
2021/07/23 00:34:43;;;;;;;20.35;17.40;;;25.00;99.90;;;;;;5111938;28;20431;-69
2021/07/23 00:37:08;;;;;;;20.80;16.77;;;25.00;99.90;;;;;;5111858;28;20496;-68
2021/07/23 00:39:34;;;;;;;19.08;16.55;;;25.00;99.90;;;;;;5109924;28;20056;-71
2021/07/23 00:42:00;;;;;;;20.98;18.80;;;25.00;99.90;;;;;;5110177;28;20498;-70
2021/07/23 00:44:25;;;;;;;19.55;16.45;;;25.00;99.90;;;;;;5111583;28;20028;-71
2021/07/23 00:46:52;;;;;;;17.92;16.13;;;25.10;99.90;;;;;;5102155;28;20108;-69
2021/07/23 00:49:18;;;;;;;17.38;15.70;;;25.20;99.90;;;;;;5111441;28;20023;-72
2021/07/23 00:51:44;;;;;;;18.23;16.38;;;25.10;99.90;;;;;;5111613;28;20110;-70
2021/07/23 00:54:11;;;;;;;18.83;16.83;;;25.10;99.90;;;;;;5111528;28;20098;-70
2021/07/23 00:56:37;;;;;;;16.98;15.40;;;25.00;99.90;;;;;;5111662;28;20052;-70
2021/07/23 00:59:04;;;;;;;27.48;17.85;;;25.00;99.90;;;;;;5111145;28;20016;-71
2021/07/23 01:01:31;;;;;;;17.60;15.85;;;25.00;99.90;;;;;;5109358;28;20027;-70
2021/07/23 01:03:58;;;;;;;18.65;16.67;;;25.00;99.90;;;;;;5111341;28;20365;-71
2021/07/23 01:06:24;;;;;;;23.60;18.40;;;25.00;99.90;;;;;;5111358;28;20024;-71
2021/07/23 01:08:50;;;;;;;25.67;22.98;;;25.00;99.90;;;;;;5109460;28;20023;-70
2021/07/23 01:11:16;;;;;;;28.75;26.00;;;25.00;99.90;;;;;;5109136;28;20370;-71
2021/07/23 01:13:42;;;;;;;22.77;20.48;;;25.10;99.90;;;;;;5109838;28;20020;-70
2021/07/23 01:16:09;;;;;;;22.27;20.08;;;25.10;99.90;;;;;;5109877;28;20039;-71
2021/07/23 01:18:35;;;;;;;25.83;23.17;;;25.00;99.90;;;;;;5109560;28;20028;-71
2021/07/23 01:21:01;;;;;;;21.17;19.10;;;25.00;99.90;;;;;;5109828;28;20118;-71
2021/07/23 01:23:31;;;;;;;23.92;17.90;;;25.00;99.90;;;;;;5109940;28;20103;-70
2021/07/23 01:25:59;;;;;;;18.20;16.40;;;25.00;99.90;;;;;;5111064;28;20016;-69
2021/07/23 01:28:30;;;;;;;18.63;16.05;;;25.00;99.90;;;;;;5109446;28;20084;-70
2021/07/23 01:30:57;;;;;;;18.83;16.90;;;25.00;99.90;;;;;;5109522;28;20027;-68
2021/07/23 01:33:22;;;;;;;19.58;15.90;;;24.90;99.90;;;;;;5109648;28;20034;-69
2021/07/23 01:35:48;;;;;;;19.38;16.40;;;24.80;99.90;;;;;;5109562;28;20388;-70
2021/07/23 01:38:15;;;;;;;17.85;16.00;;;24.90;99.90;;;;;;5110556;28;20140;-70
2021/07/23 01:40:46;;;;;;;17.85;16.23;;;24.90;99.90;;;;;;5110672;28;20027;-69
2021/07/23 01:43:14;;;;;;;18.58;16.58;;;24.90;99.90;;;;;;5111030;28;20103;-69
2021/07/23 01:45:41;;;;;;;16.60;15.10;;;24.80;99.90;;;;;;5109639;28;20153;-69
2021/07/23 01:48:06;;;;;;;18.35;16.23;;;24.80;99.90;;;;;;5110795;28;20102;-69
2021/07/23 01:50:32;;;;;;;17.83;15.75;;;24.80;99.90;;;;;;5109674;28;20055;-70
2021/07/23 01:52:58;;;;;;;21.90;16.80;;;24.80;99.90;;;;;;5109833;28;20030;-69
2021/07/23 01:55:23;;;;;;;18.23;16.50;;;24.80;99.90;;;;;;5109488;28;20019;-71
2021/07/23 01:57:49;;;;;;;16.80;15.20;;;24.80;99.90;;;;;;5110528;28;20024;-70
2021/07/23 02:00:15;;;;;;;18.55;16.75;;;24.80;99.90;;;;;;5109278;28;20027;-72
2021/07/23 02:02:41;;;;;;;18.40;15.43;;;24.80;99.90;;;;;;5110313;28;20132;-69
2021/07/23 02:05:08;;;;;;;18.92;17.02;;;24.70;99.90;;;;;;5110605;28;20026;-69
2021/07/23 02:07:33;;;;;;;19.05;16.13;;;24.80;99.90;;;;;;5110602;28;20051;-70
2021/07/23 02:10:00;;;;;;;18.23;15.60;;;24.70;99.90;;;;;;5110685;28;20055;-70
2021/07/23 02:12:26;;;;;;;17.55;15.95;;;24.70;99.90;;;;;;5111408;28;20019;-70
2021/07/23 02:14:52;;;;;;;17.50;15.73;;;24.70;99.90;;;;;;5110732;28;20474;-70
2021/07/23 02:17:18;;;;;;;16.95;15.32;;;24.70;99.90;;;;;;5110491;28;20095;-69
2021/07/23 02:19:43;;;;;;;17.63;15.98;;;24.60;99.90;;;;;;5111215;28;20020;-70
2021/07/23 02:22:09;;;;;;;17.45;15.82;;;24.70;99.90;;;;;;5110859;28;20055;-70
2021/07/23 02:24:35;;;;;;;17.35;15.57;;;24.70;99.90;;;;;;5114227;28;20076;-69
2021/07/23 02:27:01;;;;;;;17.02;15.32;;;24.70;99.90;;;;;;5114333;28;20054;-71
2021/07/23 02:29:26;;;;;;;17.52;15.38;;;24.70;99.90;;;;;;5114079;28;20027;-69
2021/07/23 02:31:52;;;;;;;21.33;16.33;;;24.70;99.90;;;;;;5114006;28;20027;-69
2021/07/23 02:34:18;;;;;;;16.25;14.75;;;24.70;99.90;;;;;;5112636;28;20027;-70
2021/07/23 02:36:44;;;;;;;16.83;15.35;;;24.70;99.90;;;;;;5113010;28;20389;-70
2021/07/23 02:39:10;;;;;;;18.83;15.15;;;24.70;99.90;;;;;;5112546;28;20038;-69
2021/07/23 02:41:36;;;;;;;21.90;16.02;;;24.70;99.90;;;;;;5115315;28;20131;-72
2021/07/23 02:44:02;;;;;;;22.42;15.60;;;24.60;99.90;;;;;;5114071;28;20024;-70
2021/07/23 02:46:29;;;;;;;15.68;14.18;;;24.60;99.90;;;;;;5112774;28;20258;-69
2021/07/23 02:48:55;;;;;;;18.30;14.40;;;24.60;99.90;;;;;;5105236;28;20028;-69
2021/07/23 02:51:21;;;;;;;16.58;15.05;;;24.60;99.90;;;;;;5113557;27;20024;-70
2021/07/23 02:53:46;;;;;;;16.48;15.05;;;24.60;99.90;;;;;;5113902;28;20030;-69
2021/07/23 02:56:12;;;;;;;18.60;16.67;;;24.60;99.90;;;;;;5113660;28;20444;-69
2021/07/23 02:58:42;;;;;;;17.15;15.55;;;24.60;99.90;;;;;;5113339;28;20058;-69
2021/07/23 03:01:08;;;;;;;16.08;14.52;;;24.50;99.90;;;;;;5114103;28;20020;-70
2021/07/23 03:03:35;;;;;;;17.95;16.17;;;24.50;99.90;;;;;;5113910;28;20106;-69
2021/07/23 03:06:01;;;;;;;17.02;14.95;;;24.50;99.90;;;;;;5112662;28;20045;-70
2021/07/23 03:08:27;;;;;;;19.38;15.23;;;24.50;99.90;;;;;;5114380;28;20012;-70
2021/07/23 03:10:54;;;;;;;17.05;15.43;;;24.50;99.90;;;;;;5112554;28;20068;-70
2021/07/23 03:13:20;;;;;;;18.20;16.38;;;24.40;99.90;;;;;;5112623;28;20023;-70
2021/07/23 03:15:46;;;;;;;17.77;16.02;;;24.40;99.90;;;;;;5112139;28;20378;-70
2021/07/23 03:18:12;;;;;;;16.90;14.77;;;24.40;99.90;;;;;;5112088;28;20073;-69
2021/07/23 03:20:38;;;;;;;16.27;14.35;;;24.40;99.90;;;;;;5111625;28;20051;-72
2021/07/23 03:23:05;;;;;;;26.50;14.88;;;24.40;99.90;;;;;;5113864;28;20042;-69
2021/07/23 03:25:31;;;;;;;15.73;14.32;;;24.40;99.90;;;;;;5112026;28;20034;-70
2021/07/23 03:27:57;;;;;;;17.02;15.23;;;24.40;99.90;;;;;;5112582;28;20058;-70
2021/07/23 03:30:23;;;;;;;19.95;15.60;;;24.30;99.90;;;;;;5113524;28;20482;-69
2021/07/23 03:32:49;;;;;;;17.83;16.08;;;24.30;99.90;;;;;;5112986;28;20055;-71
2021/07/23 03:35:14;;;;;;;17.35;14.25;;;24.30;99.90;;;;;;5113119;28;20019;-69
2021/07/23 03:37:40;;;;;;;22.45;16.27;;;24.30;99.90;;;;;;5112852;28;20103;-69
2021/07/23 03:40:07;;;;;;;16.73;14.10;;;24.30;99.90;;;;;;5112797;28;20433;-68
2021/07/23 03:42:33;;;;;;;16.73;15.05;;;24.20;99.90;;;;;;5111866;28;20042;-70
2021/07/23 03:44:59;;;;;;;17.08;15.48;;;24.20;99.90;;;;;;5113114;28;20474;-69
2021/07/23 03:47:25;;;;;;;16.95;15.27;;;24.20;99.90;;;;;;5112941;28;20537;-69
2021/07/23 03:49:51;;;;;;;19.38;15.98;;;24.20;99.90;;;;;;5112556;28;20098;-69
2021/07/23 03:52:17;;;;;;;19.83;14.73;;;24.30;99.90;;;;;;5113123;28;20371;-69
2021/07/23 03:54:42;;;;;;;16.95;15.27;;;24.30;99.90;;;;;;5112510;27;20374;-70
2021/07/23 03:57:08;;;;;;;19.48;16.48;;;24.30;99.90;;;;;;5111133;28;20047;-69
2021/07/23 03:59:34;;;;;;;16.38;14.63;;;24.20;99.90;;;;;;5112716;28;20027;-70
2021/07/23 04:02:00;;;;;;;16.92;15.23;;;24.30;99.90;;;;;;5112091;28;20501;-69
2021/07/23 04:04:26;;;;;;;18.08;15.45;;;24.30;99.90;;;;;;5112211;28;20389;-70
2021/07/23 04:06:59;;;;;;;16.73;15.32;;;24.30;99.90;;;;;;5110927;28;20134;-71
2021/07/23 04:09:29;;;;;;;17.73;14.63;;;24.30;99.90;;;;;;5110636;28;20039;-70
2021/07/23 04:11:55;;;;;;;16.55;14.95;;;24.30;99.90;;;;;;5112355;27;20070;-70
2021/07/23 04:14:22;;;;;;;16.75;14.93;;;24.30;99.90;;;;;;5112087;28;20095;-68
2021/07/23 04:16:48;;;;;;;16.58;14.98;;;24.40;99.90;;;;;;5112179;28;20384;-68
2021/07/23 04:19:15;;;;;;;18.80;16.40;;;24.50;99.90;;;;;;5111920;28;20059;-68
2021/07/23 04:21:41;;;;;;;18.67;16.88;;;24.60;99.90;;;;;;5111978;28;20023;-69
2021/07/23 04:24:07;;;;;;;17.40;15.13;;;24.60;99.90;;;;;;5110546;28;20073;-69
2021/07/23 04:26:33;;;;;;;17.40;15.73;;;24.70;99.90;;;;;;5112016;28;20342;-70
2021/07/23 04:28:59;;;;;;;18.70;16.40;;;24.70;99.90;;;;;;5111891;28;20532;-70
2021/07/23 04:31:25;;;;;;;18.08;16.25;;;24.70;99.90;;;;;;5110372;28;20031;-70
2021/07/23 04:33:51;;;;;;;19.38;15.15;;;24.70;99.90;;;;;;5111900;28;20012;-69
2021/07/23 04:36:17;;;;;;;17.55;14.68;;;24.80;99.90;;;;;;5110729;28;20042;-69
2021/07/23 04:38:43;;;;;;;16.70;15.02;;;24.70;99.90;;;;;;5110072;28;20131;-69
2021/07/23 04:41:08;;;;;;;17.10;15.40;;;24.70;99.90;;;;;;5110246;28;20024;-69
2021/07/23 04:43:38;;;;;;;22.17;15.63;;;24.70;99.90;;;;;;5110734;28;20110;-69
2021/07/23 04:46:05;;;;;;;16.55;14.82;;;24.80;99.90;;;;;;5111046;28;20026;-68
2021/07/23 04:48:32;;;;;;;16.50;13.88;;;24.70;99.90;;;;;;5100187;28;20028;-68
2021/07/23 04:51:01;;;;;;;16.85;15.18;;;24.60;99.90;;;;;;5107999;28;20058;-70
2021/07/23 04:53:26;;;;;;;16.17;14.27;;;24.60;99.90;;;;;;5111468;28;20381;-68
2021/07/23 04:55:54;;;;;;;16.45;14.82;;;24.70;99.90;;;;;;5110442;28;20049;-71
2021/07/23 04:58:20;;;;;;;18.75;16.17;;;24.80;99.90;;;;;;5111599;28;20512;-68
2021/07/23 05:00:45;;;;;;;16.58;14.98;;;24.80;99.90;;;;;;5111082;28;20067;-69
2021/07/23 05:03:12;;;;;;;15.88;13.80;;;24.80;99.90;;;;;;5112442;28;20036;-69
2021/07/23 05:05:41;;;;;;;17.95;15.73;;;24.70;99.90;;;;;;5111610;28;20449;-68
2021/07/23 05:08:09;;;;;;;19.27;15.55;;;24.80;99.90;;;;;;5111211;28;20019;-69
2021/07/23 05:10:36;;;;;;;17.17;15.43;;;24.80;99.90;;;;;;5111304;28;20020;-71
2021/07/23 05:13:03;;;;;;;15.68;14.18;;;24.80;99.90;;;;;;5111090;28;20046;-71
2021/07/23 05:15:29;;;;;;;15.98;14.35;;;24.90;99.90;;;;;;5111207;28;20047;-70
2021/07/23 05:17:55;;;;;;;23.15;15.68;;;24.90;99.90;;;;;;5109622;28;20110;-69
2021/07/23 05:20:21;;;;;;;18.00;15.88;;;24.90;99.90;;;;;;5110995;28;20114;-69
2021/07/23 05:22:46;;;;;;;17.65;15.55;;;25.00;99.90;;;;;;5110903;28;20022;-67
2021/07/23 05:25:12;;;;;;;16.25;14.75;;;25.00;99.90;;;;;;5110969;28;20024;-69
2021/07/23 05:27:38;;;;;;;17.70;16.02;;;25.00;99.90;;;;;;5111007;28;20024;-69
2021/07/23 05:30:05;;;;;;;19.02;15.40;;;25.00;99.90;;;;;;5111730;28;20114;-69
2021/07/23 05:32:30;;;;;;;16.42;14.73;;;25.00;99.90;;;;;;5110678;28;20024;-68
2021/07/23 05:34:56;;;;;;;20.05;14.77;;;25.00;99.90;;;;;;5109446;28;20030;-69
2021/07/23 05:37:22;;;;;;;16.35;14.85;;;25.10;99.90;;;;;;5110902;28;20549;-69
2021/07/23 05:39:48;;;;;;;18.17;14.15;;;25.00;99.90;;;;;;5108978;28;20027;-69
2021/07/23 05:42:14;;;;;;;16.88;15.25;;;25.00;99.90;;;;;;5111591;28;20020;-68
2021/07/23 05:44:40;;;;;;;16.65;14.77;;;25.10;99.90;;;;;;5109788;28;20019;-69
2021/07/23 05:47:05;;;;;;;19.25;16.15;;;25.00;99.90;;;;;;5111227;28;20030;-68
2021/07/23 05:49:31;;;;;;;17.77;15.98;;;25.00;99.90;;;;;;5109546;28;20035;-68
2021/07/23 05:51:57;;;;;;;18.15;16.25;;;25.00;99.90;;;;;;5110853;28;20028;-69
2021/07/23 05:54:22;;;;;;;17.80;14.80;;;25.00;99.90;;;;;;5111540;28;20497;-69
2021/07/23 05:56:48;;;;;;;17.77;14.70;;;25.00;99.90;;;;;;5110552;28;20047;-69
2021/07/23 05:59:14;;;;;;;15.40;13.95;;;25.00;99.90;;;;;;5114738;28;20034;-68
2021/07/23 06:01:39;;;;;;;15.18;13.40;;;25.10;99.90;;;;;;5114578;28;20020;-70
2021/07/23 06:04:05;;;;;;;15.55;13.93;;;25.20;99.90;;;;;;5116053;28;20035;-69
2021/07/23 06:06:31;;;;;;;16.75;15.07;;;25.20;99.90;;;;;;5113121;28;20028;-70
2021/07/23 06:08:59;;;;;;;16.60;15.00;;;25.30;99.90;;;;;;5113021;28;20078;-69
2021/07/23 06:11:25;;;;;;;15.95;14.35;;;25.30;99.90;;;;;;5114407;28;20026;-70
2021/07/23 06:13:51;;;;;;;17.48;13.25;;;25.30;99.90;;;;;;5114410;28;20128;-70
2021/07/23 06:16:17;;;;;;;16.05;14.40;;;25.20;99.90;;;;;;5114632;28;20020;-68
2021/07/23 06:18:42;;;;;;;17.67;15.85;;;25.30;99.90;;;;;;5112779;28;20080;-68
2021/07/23 06:21:09;;;;;;;18.85;15.95;;;25.40;99.90;;;;;;5112991;28;20054;-69
2021/07/23 06:23:35;;;;;;;16.38;14.32;;;25.50;99.90;;;;;;5113579;28;20165;-69
2021/07/23 06:26:03;;;;;;;23.02;17.88;;;25.60;99.90;;;;;;5115098;28;20520;-69
2021/07/23 06:28:28;;;;;;;21.38;17.70;;;25.60;99.90;;;;;;5112926;28;20024;-69
2021/07/23 06:31:01;;;;;;;23.40;18.00;;;25.70;99.90;;;;;;5114389;28;20583;-68
2021/07/23 06:33:27;;;;;;;24.98;20.00;;;25.80;99.90;;;;;;5114785;28;20434;-71
2021/07/23 06:35:53;;;;;;;23.48;19.63;;;26.00;99.90;;;;;;5114039;28;20023;-70
2021/07/23 06:38:19;;;;;;;69.60;23.80;;;26.20;99.90;;;;;;5112231;28;20035;-69
2021/07/23 06:40:45;;;;;;;36.38;21.38;;;26.30;99.90;;;;;;5113746;28;20408;-68
2021/07/23 06:43:10;;;;;;;46.28;23.15;;;26.50;99.90;;;;;;5114086;28;20023;-69
2021/07/23 06:45:36;;;;;;;45.15;19.70;;;26.60;99.90;;;;;;5114112;28;20019;-69
2021/07/23 06:48:02;;;;;;;29.40;15.52;;;26.50;99.90;;;;;;5112275;28;20016;-69
2021/07/23 06:50:31;;;;;;;15.70;14.30;;;26.50;99.90;;;;;;5103350;27;20059;-69
2021/07/23 06:52:57;;;;;;;26.30;16.52;;;26.70;99.90;;;;;;5113974;28;20031;-68
2021/07/23 06:55:23;;;;;;;17.88;15.93;;;26.70;99.90;;;;;;5114119;28;20028;-69
2021/07/23 06:57:48;;;;;;;21.88;15.07;;;26.60;99.90;;;;;;5113522;28;20024;-69
2021/07/23 07:00:14;;;;;;;23.00;16.02;;;26.60;99.90;;;;;;5113437;28;20481;-71
2021/07/23 07:02:40;;;;;;;19.25;14.00;;;26.60;99.90;;;;;;5113737;28;20115;-69
2021/07/23 07:05:07;;;;;;;15.52;13.98;;;26.60;99.90;;;;;;5112689;28;20106;-68
2021/07/23 07:07:32;;;;;;;30.90;15.43;;;26.60;99.90;;;;;;5113506;28;20068;-69
2021/07/23 07:09:58;;;;;;;16.23;14.52;;;26.80;99.90;;;;;;5111600;28;20020;-69
2021/07/23 07:12:24;;;;;;;15.20;13.50;;;26.90;99.90;;;;;;5112142;28;20028;-69
2021/07/23 07:14:51;;;;;;;17.67;15.77;;;27.00;99.90;;;;;;5113589;28;20035;-68
2021/07/23 07:17:18;;;;;;;15.43;13.85;;;27.10;99.90;;;;;;5113295;28;20531;-68
2021/07/23 07:19:44;;;;;;;15.65;14.07;;;27.20;99.90;;;;;;5113082;28;20025;-69
2021/07/23 07:22:10;;;;;;;15.23;13.82;;;27.20;99.90;;;;;;5113302;28;20020;-69
2021/07/23 07:24:36;;;;;;;15.70;14.07;;;27.10;99.90;;;;;;5113213;28;20027;-69
2021/07/23 07:27:02;;;;;;;16.48;14.90;;;27.10;99.90;;;;;;5112050;28;20039;-67
2021/07/23 07:29:27;;;;;;;19.05;14.95;;;27.10;99.90;;;;;;5111216;28;20118;-68
2021/07/23 07:31:53;;;;;;;25.98;15.43;;;27.10;99.90;;;;;;5112863;28;20538;-68
2021/07/23 07:34:19;;;;;;;18.88;15.38;;;27.10;99.90;;;;;;5113281;28;20102;-69
2021/07/23 07:36:44;;;;;;;17.95;14.50;;;27.00;99.90;;;;;;5113288;28;20023;-70
2021/07/23 07:39:11;;;;;;;18.15;14.05;;;26.90;99.90;;;;;;5111410;28;20028;-69
2021/07/23 07:41:37;;;;;;;16.23;14.40;;;26.90;99.90;;;;;;5112931;28;20090;-69
2021/07/23 07:44:04;;;;;;;14.93;13.43;;;26.90;99.90;;;;;;5111641;28;20157;-68
2021/07/23 07:46:30;;;;;;;19.00;15.68;;;26.90;99.90;;;;;;5112705;28;20057;-68
2021/07/23 07:48:55;;;;;;;17.25;14.05;;;27.00;99.90;;;;;;5111292;28;20097;-71
2021/07/23 07:51:21;;;;;;;14.25;12.95;;;27.10;99.90;;;;;;5113001;28;20071;-72
2021/07/23 07:53:47;;;;;;;22.73;13.90;;;27.20;99.90;;;;;;5112766;28;20114;-68
2021/07/23 07:56:14;;;;;;;16.02;14.10;;;27.20;99.90;;;;;;5112728;28;20154;-70
2021/07/23 07:58:39;;;;;;;15.88;14.32;;;27.30;99.90;;;;;;5110916;28;20474;-71
2021/07/23 08:01:10;;;;;;;15.35;13.85;;;27.40;99.90;;;;;;5110631;28;20027;-70
2021/07/23 08:03:36;;;;;;;21.88;13.73;;;27.50;99.90;;;;;;5111094;28;20225;-69
2021/07/23 08:06:18;;;;;;;15.45;13.95;;;27.60;99.90;;;;;;5111464;28;20028;-69
2021/07/23 08:08:44;;;;;;;15.73;14.13;;;27.80;99.90;;;;;;5111857;28;20027;-69
2021/07/23 08:11:10;;;;;;;16.20;14.75;;;27.70;99.90;;;;;;5112255;28;20158;-70
2021/07/23 08:13:36;;;;;;;15.57;13.40;;;27.70;99.90;;;;;;5112384;28;20094;-68
2021/07/23 08:16:04;;;;;;;20.00;14.45;;;27.90;99.90;;;;;;5111141;28;20220;-68
2021/07/23 08:18:30;;;;;;;15.60;14.07;;;28.10;99.90;;;;;;5111954;28;20460;-69
2021/07/23 08:20:56;;;;;;;15.18;13.77;;;28.30;99.90;;;;;;5110418;28;20051;-69
2021/07/23 08:23:22;;;;;;;15.18;13.65;;;28.40;99.90;;;;;;5112432;28;20043;-69
2021/07/23 08:25:48;;;;;;;16.52;13.90;;;28.40;99.90;;;;;;5112499;28;20098;-68
2021/07/23 08:28:15;;;;;;;16.48;12.70;;;28.20;99.90;;;;;;5112002;28;20140;-69
2021/07/23 08:30:41;;;;;;;14.82;13.32;;;28.20;99.90;;;;;;5110367;28;20055;-69
2021/07/23 08:33:07;;;;;;;16.85;15.00;;;28.20;99.90;;;;;;5111845;28;20051;-69
2021/07/23 08:35:32;;;;;;;21.52;16.33;;;28.30;99.90;;;;;;5110731;28;20047;-69
2021/07/23 08:37:58;;;;;;;19.60;16.02;;;28.40;99.90;;;;;;5110192;28;20339;-69
2021/07/23 08:40:24;;;;;;;15.60;14.05;;;28.60;99.90;;;;;;5110466;28;20386;-69
2021/07/23 08:42:50;;;;;;;28.05;16.90;;;28.70;99.90;;;;;;5111745;28;20494;-69
2021/07/23 08:45:15;;;;;;;16.35;14.13;;;28.60;99.90;;;;;;5110377;28;20110;-69
2021/07/23 08:47:41;;;;;;;16.27;14.55;;;28.70;99.90;;;;;;5109912;28;20389;-69
2021/07/23 08:50:07;;;;;;;15.43;11.52;;;28.70;99.90;;;;;;5103353;28;20020;-70
2021/07/23 08:52:46;;;;;;;15.57;13.70;;;28.90;99.90;;;;;;5106221;28;20047;-68
2021/07/23 08:55:13;;;;;;;20.73;16.35;;;29.10;99.90;;;;;;5110129;28;20031;-70
2021/07/23 08:57:39;;;;;;;45.03;17.50;;;29.20;99.90;;;;;;5109730;28;20031;-68
2021/07/23 09:00:10;;;;;;;33.15;17.45;;;29.30;99.90;;;;;;5111177;28;20034;-69
2021/07/23 09:02:58;;;;;;;23.17;15.32;;;29.10;99.90;;;;;;5109768;28;20019;-68
2021/07/23 09:05:35;;;;;;;36.25;15.55;;;28.90;99.90;;;;;;5110159;28;20031;-69
2021/07/23 09:08:07;;;;;;;77.20;16.95;;;28.90;99.90;;;;;;5109687;28;20028;-70
2021/07/23 09:10:33;;;;;;;32.30;14.48;;;29.10;99.90;;;;;;5110928;28;20028;-69
2021/07/23 09:13:01;;;;;;;26.02;13.98;;;29.20;99.90;;;;;;5109465;28;20126;-70
2021/07/23 09:15:30;;;;;;;20.05;14.25;;;29.40;99.90;;;;;;5109947;28;20035;-69
2021/07/23 09:17:56;;;;;;;30.48;16.08;;;29.50;99.90;;;;;;5109533;28;20184;-70
2021/07/23 09:20:28;;;;;;;14.65;13.20;;;29.70;99.90;;;;;;5109788;28;20034;-69
2021/07/23 09:22:55;;;;;;;;;;;29.80;99.90;;;;;;5110129;28;20019;-69
2021/07/23 09:25:36;;;;;;;18.17;13.90;;;29.90;99.90;;;;;;5111071;28;19908;-71
2021/07/23 09:28:17;;;;;;;15.38;13.77;;;29.70;99.90;;;;;;5109601;28;20020;-69
2021/07/23 09:30:43;;;;;;;17.15;14.13;;;29.70;99.90;;;;;;5109806;28;20028;-69
2021/07/23 09:33:12;;;;;;;15.00;13.43;;;29.90;99.90;;;;;;5111089;28;20020;-69
2021/07/23 09:35:51;;;;;;;24.95;16.05;;;30.10;99.90;;;;;;5109421;28;20024;-68
2021/07/23 09:38:19;;;;;;;16.77;15.00;;;30.20;99.90;;;;;;5110563;28;20020;-71
2021/07/23 09:40:45;;;;;;;15.68;14.23;;;30.00;99.90;;;;;;5110869;28;20038;-70
2021/07/23 09:43:11;;;;;;;20.00;14.70;;;30.00;99.90;;;;;;5110916;28;20443;-70
2021/07/23 09:45:37;;;;;;;18.92;14.48;;;29.90;99.90;;;;;;5109706;28;20203;-69
2021/07/23 09:48:11;;;;;;;14.40;13.15;;;29.90;99.90;;;;;;5109589;28;20024;-70
2021/07/23 09:50:43;;;;;;;15.73;14.13;;;30.00;99.90;;;;;;5110832;28;20080;-68
2021/07/23 09:53:16;;;;;;;17.13;14.10;;;30.00;99.90;;;;;;5109653;28;20016;-70
2021/07/23 09:55:46;;;;;;;15.57;14.27;;;29.70;99.90;;;;;;5110969;28;20028;-69
2021/07/23 09:58:18;;;;;;;14.95;13.50;;;29.80;99.90;;;;;;5112558;28;20246;-69
2021/07/23 10:00:48;;;;;;;16.27;14.40;;;29.90;99.90;;;;;;5109307;28;20028;-68
2021/07/23 10:03:16;;;;;;;19.65;15.27;;;30.10;99.90;;;;;;5111063;28;20434;-70
2021/07/23 10:05:53;;;;;;;30.73;15.63;;;30.30;99.90;;;;;;5109225;28;20393;-71
2021/07/23 10:08:31;;;;;;;17.65;14.60;;;30.60;99.90;;;;;;5110862;28;20169;-70
2021/07/23 10:11:00;;;;;;;17.23;14.18;;;30.50;99.90;;;;;;5109173;28;20072;-70
2021/07/23 10:13:29;;;;;;;20.85;16.65;;;30.30;99.90;;;;;;5110482;28;20024;-69
2021/07/23 10:15:55;;;;;;;21.55;15.68;;;30.00;99.90;;;;;;5110675;28;20157;-71
2021/07/23 10:18:22;;;;;;;24.23;15.48;;;29.70;99.90;;;;;;5108911;28;20038;-70
2021/07/23 10:20:48;;;;;;;15.25;13.68;;;29.40;99.90;;;;;;5109149;28;20523;-69
2021/07/23 10:23:22;;;;;;;18.05;14.55;;;29.20;99.90;;;;;;5110401;28;20469;-70
2021/07/23 10:25:49;;;;;;;16.05;14.43;;;29.10;99.90;;;;;;5109233;28;20496;-70
2021/07/23 10:28:40;;;;;;;16.30;14.52;;;29.10;99.90;;;;;;5109311;28;20525;-71
2021/07/23 10:31:18;;;;;;;17.23;15.52;;;29.10;99.90;;;;;;5110549;28;20095;-68
2021/07/23 10:33:59;;;;;;;19.80;15.85;;;29.10;99.90;;;;;;5109235;28;20119;-71
2021/07/23 10:36:31;;;;;;;;;;;29.10;99.90;;;;;;5110916;28;20108;-70
2021/07/23 10:39:06;;;;;;;18.02;15.32;;;29.10;99.90;;;;;;5108982;28;19957;-69
2021/07/23 10:41:36;;;;;;;17.08;14.70;;;29.10;99.90;;;;;;5108831;28;20104;-68
2021/07/23 10:44:03;;;;;;;18.58;16.77;;;29.10;99.90;;;;;;5112433;28;20038;-70
2021/07/23 10:46:44;;;;;;;16.98;15.15;;;29.20;99.90;;;;;;5115659;28;20024;-69
2021/07/23 10:49:10;;;;;;;22.58;16.92;;;29.20;99.90;;;;;;5115084;28;20020;-70
2021/07/23 10:51:47;;;;;;;19.60;16.65;;;29.10;99.90;;;;;;5107108;28;20039;-71
2021/07/23 10:54:13;;;;;;;18.67;16.75;;;29.10;99.90;;;;;;5107252;28;20020;-70
2021/07/23 10:57:04;;;;;;;18.63;16.88;;;28.90;99.90;;;;;;5115454;28;20434;-69
2021/07/23 11:02:11;;;;;;;19.83;17.75;;;28.90;99.90;;;;;;5113914;28;20027;-70
2021/07/23 11:04:40;;;;;;;19.95;17.65;;;28.80;99.90;;;;;;5112653;28;20110;-70
2021/07/23 11:07:07;;;;;;;20.20;18.10;;;28.90;99.90;;;;;;5113765;28;20399;-69
2021/07/23 11:09:34;;;;;;;19.08;17.17;;;29.00;99.90;;;;;;5112213;28;20027;-71
2021/07/23 11:12:20;;;;;;;18.83;16.25;;;29.20;99.90;;;;;;5113806;28;20044;-70
2021/07/23 11:15:00;;;;;;;18.38;16.52;;;28.80;99.90;;;;;;5112510;28;20185;-69
2021/07/23 11:17:27;;;;;;;18.35;16.65;;;28.50;99.90;;;;;;5112468;28;20027;-69
2021/07/23 11:20:01;;;;;;;19.23;17.15;;;28.50;99.90;;;;;;5113189;28;20157;-70
2021/07/23 11:22:29;;;;;;;18.05;16.25;;;28.50;99.90;;;;;;5113618;28;20072;-71
2021/07/23 11:25:02;;;;;;;18.42;16.60;;;28.50;99.90;;;;;;5113905;28;20020;-70
2021/07/23 11:27:30;;;;;;;18.48;16.83;;;28.50;99.90;;;;;;5111909;28;20483;-69
2021/07/23 11:29:57;;;;;;;21.25;18.00;;;28.40;99.90;;;;;;5112135;28;20031;-70
2021/07/23 11:32:29;;;;;;;20.17;18.17;;;28.50;99.90;;;;;;5111945;28;20047;-69
2021/07/23 11:35:06;;;;;;;21.20;18.95;;;28.50;99.90;;;;;;5112404;28;20565;-70
2021/07/23 11:37:35;;;;;;;21.95;18.38;;;28.40;99.90;;;;;;5113116;28;20042;-69
2021/07/23 11:40:04;;;;;;;22.73;18.17;;;28.50;99.90;;;;;;5111854;28;20103;-72
2021/07/23 11:42:42;;;;;;;19.75;17.67;;;28.70;99.90;;;;;;5111850;28;20020;-70
2021/07/23 11:45:10;;;;;;;20.02;18.08;;;28.80;99.90;;;;;;5111645;28;20023;-73
2021/07/23 11:48:02;;;;;;;20.40;18.67;;;28.70;99.90;;;;;;5112801;28;20427;-70
2021/07/23 11:50:27;;;;;;;19.73;17.73;;;28.50;99.90;;;;;;5110468;28;20250;-70
2021/07/23 11:53:02;;;;;;;19.15;17.35;;;28.40;99.90;;;;;;5111409;28;20088;-70
2021/07/23 11:55:39;;;;;;;22.08;18.23;;;28.30;99.90;;;;;;5111018;28;20032;-70
2021/07/23 11:58:06;;;;;;;27.63;19.10;;;28.30;99.90;;;;;;5112786;28;20060;-69
2021/07/23 12:00:31;;;;;;;19.00;17.23;;;28.30;99.90;;;;;;5112368;28;20439;-69
2021/07/23 12:03:17;;;;;;;23.90;18.98;;;28.30;99.90;;;;;;5112532;28;20114;-69
2021/07/23 12:05:44;;;;;;;25.70;18.85;;;28.30;99.90;;;;;;5111153;28;20038;-69
2021/07/23 12:08:10;;;;;;;20.38;18.30;;;28.30;99.90;;;;;;5111384;28;20027;-70
2021/07/23 12:10:36;;;;;;;19.63;17.80;;;28.20;99.90;;;;;;5111232;28;20023;-71
2021/07/23 12:13:06;;;;;;;21.27;18.05;;;28.10;99.90;;;;;;5112244;28;20031;-71
2021/07/23 12:15:41;;;;;;;21.52;18.95;;;28.00;99.90;;;;;;5112518;28;20537;-69
2021/07/23 12:18:06;;;;;;;20.25;18.27;;;28.10;99.90;;;;;;5111899;28;20037;-70
2021/07/23 12:20:32;;;;;;;19.95;17.85;;;28.20;99.90;;;;;;5111871;28;20039;-69
2021/07/23 12:23:00;;;;;;;21.77;18.60;;;28.40;99.90;;;;;;5110852;28;20084;-70
2021/07/23 12:25:27;;;;;;;20.30;18.30;;;28.30;99.90;;;;;;5111826;28;20069;-70
2021/07/23 12:28:14;;;;;;;19.13;17.17;;;28.40;99.90;;;;;;5111896;27;20016;-69
2021/07/23 12:30:41;;;;;;;19.35;17.20;;;28.40;99.90;;;;;;5110506;28;20123;-69
2021/07/23 12:33:28;;;;;;;20.38;17.85;;;28.50;99.90;;;;;;5111177;28;20028;-69